sensor_id;sensor_type;location;lat;lon;timestamp;temperature;humidity
46037;DHT22;31769;49.304;8.428;2023-02-19T00:02:27;10.30;99.90
46037;DHT22;31769;49.304;8.428;2023-02-19T00:05:28;10.30;99.90
46037;DHT22;31769;49.304;8.428;2023-02-19T00:08:30;10.30;99.90
46037;DHT22;31769;49.304;8.428;2023-02-19T00:11:33;10.20;99.90
46037;DHT22;31769;49.304;8.428;2023-02-19T00:14:34;10.30;99.90
46037;DHT22;31769;49.304;8.428;2023-02-19T00:17:34;10.20;99.90
46037;DHT22;31769;49.304;8.428;2023-02-19T00:20:35;10.20;99.90
46037;DHT22;31769;49.304;8.428;2023-02-19T00:23:36;10.20;99.90
46037;DHT22;31769;49.304;8.428;2023-02-19T00:26:38;10.10;99.90
46037;DHT22;31769;49.304;8.428;2023-02-19T00:29:40;10.10;99.90
46037;DHT22;31769;49.304;8.428;2023-02-19T00:32:40;10.10;99.90
46037;DHT22;31769;49.304;8.428;2023-02-19T00:35:44;10.10;99.90
46037;DHT22;31769;49.304;8.428;2023-02-19T00:38:45;10.10;99.90
46037;DHT22;31769;49.304;8.428;2023-02-19T00:41:46;10.00;99.90
46037;DHT22;31769;49.304;8.428;2023-02-19T00:44:47;10.00;99.90
46037;DHT22;31769;49.304;8.428;2023-02-19T00:47:48;10.00;99.90
46037;DHT22;31769;49.304;8.428;2023-02-19T00:50:48;10.00;99.90
46037;DHT22;31769;49.304;8.428;2023-02-19T00:53:50;10.00;99.90
46037;DHT22;31769;49.304;8.428;2023-02-19T00:56:50;9.90;99.90
46037;DHT22;31769;49.304;8.428;2023-02-19T00:59:55;9.90;99.90
46037;DHT22;31769;49.304;8.428;2023-02-19T01:02:56;9.80;99.90
46037;DHT22;31769;49.304;8.428;2023-02-19T01:06:00;9.80;99.90
46037;DHT22;31769;49.304;8.428;2023-02-19T01:09:02;9.80;99.90
46037;DHT22;31769;49.304;8.428;2023-02-19T01:12:04;9.80;99.90
46037;DHT22;31769;49.304;8.428;2023-02-19T01:15:05;9.80;99.90
46037;DHT22;31769;49.304;8.428;2023-02-19T01:18:06;9.80;99.90
46037;DHT22;31769;49.304;8.428;2023-02-19T01:21:11;9.80;99.90
46037;DHT22;31769;49.304;8.428;2023-02-19T01:24:12;9.80;99.90
46037;DHT22;31769;49.304;8.428;2023-02-19T01:27:12;9.80;99.90
46037;DHT22;31769;49.304;8.428;2023-02-19T01:30:13;9.80;99.90
46037;DHT22;31769;49.304;8.428;2023-02-19T01:33:14;9.80;99.90
46037;DHT22;31769;49.304;8.428;2023-02-19T01:36:16;9.80;99.90
46037;DHT22;31769;49.304;8.428;2023-02-19T01:39:16;9.70;99.90
46037;DHT22;31769;49.304;8.428;2023-02-19T01:42:17;9.70;99.90
46037;DHT22;31769;49.304;8.428;2023-02-19T01:45:28;9.60;99.90
46037;DHT22;31769;49.304;8.428;2023-02-19T01:48:37;9.40;99.90
46037;DHT22;31769;49.304;8.428;2023-02-19T01:51:44;9.30;99.90
46037;DHT22;31769;49.304;8.428;2023-02-19T01:54:45;9.10;99.90
46037;DHT22;31769;49.304;8.428;2023-02-19T01:57:49;9.10;99.90
46037;DHT22;31769;49.304;8.428;2023-02-19T02:00:51;9.00;99.90
46037;DHT22;31769;49.304;8.428;2023-02-19T02:03:53;9.00;99.90
46037;DHT22;31769;49.304;8.428;2023-02-19T02:06:57;9.10;99.90
46037;DHT22;31769;49.304;8.428;2023-02-19T02:09:59;9.10;99.90
46037;DHT22;31769;49.304;8.428;2023-02-19T02:13:18;9.10;99.90
46037;DHT22;31769;49.304;8.428;2023-02-19T02:27:18;9.20;99.90
46037;DHT22;31769;49.304;8.428;2023-02-19T02:30:32;9.20;99.90
46037;DHT22;31769;49.304;8.428;2023-02-19T02:36:46;9.20;99.90
46037;DHT22;31769;49.304;8.428;2023-02-19T02:39:48;9.20;99.90
46037;DHT22;31769;49.304;8.428;2023-02-19T02:42:50;9.30;99.90
46037;DHT22;31769;49.304;8.428;2023-02-19T02:45:51;9.30;99.90
46037;DHT22;31769;49.304;8.428;2023-02-19T02:49:08;9.30;99.90
46037;DHT22;31769;49.304;8.428;2023-02-19T02:52:10;9.30;99.90
46037;DHT22;31769;49.304;8.428;2023-02-19T02:55:35;9.20;99.90
46037;DHT22;31769;49.304;8.428;2023-02-19T02:58:37;9.20;99.90
46037;DHT22;31769;49.304;8.428;2023-02-19T03:05:16;9.10;99.90
46037;DHT22;31769;49.304;8.428;2023-02-19T03:11:40;9.00;99.90
46037;DHT22;31769;49.304;8.428;2023-02-19T03:15:05;9.10;99.90
46037;DHT22;31769;49.304;8.428;2023-02-19T03:18:29;8.90;99.90
46037;DHT22;31769;49.304;8.428;2023-02-19T03:22:09;8.90;99.90
46037;DHT22;31769;49.304;8.428;2023-02-19T03:25:19;8.90;99.90
46037;DHT22;31769;49.304;8.428;2023-02-19T03:28:41;8.80;99.90
46037;DHT22;31769;49.304;8.428;2023-02-19T03:32:05;8.90;99.90
46037;DHT22;31769;49.304;8.428;2023-02-19T03:35:15;8.90;99.90
46037;DHT22;31769;49.304;8.428;2023-02-19T03:39:02;8.90;99.90
46037;DHT22;31769;49.304;8.428;2023-02-19T03:42:11;8.90;99.90
46037;DHT22;31769;49.304;8.428;2023-02-19T03:48:34;8.80;99.90
46037;DHT22;31769;49.304;8.428;2023-02-19T03:51:42;8.80;99.90
46037;DHT22;31769;49.304;8.428;2023-02-19T03:54:50;8.80;99.90
46037;DHT22;31769;49.304;8.428;2023-02-19T04:04:28;8.80;99.90
46037;DHT22;31769;49.304;8.428;2023-02-19T04:07:34;8.80;99.90
46037;DHT22;31769;49.304;8.428;2023-02-19T04:10:38;8.80;99.90
46037;DHT22;31769;49.304;8.428;2023-02-19T04:13:47;8.80;99.90
46037;DHT22;31769;49.304;8.428;2023-02-19T04:16:57;8.90;99.90
46037;DHT22;31769;49.304;8.428;2023-02-19T04:20:00;8.90;99.90
46037;DHT22;31769;49.304;8.428;2023-02-19T04:23:03;8.90;99.90
46037;DHT22;31769;49.304;8.428;2023-02-19T04:26:04;9.00;99.90
46037;DHT22;31769;49.304;8.428;2023-02-19T04:29:07;9.00;99.90
46037;DHT22;31769;49.304;8.428;2023-02-19T04:32:10;9.00;99.90
46037;DHT22;31769;49.304;8.428;2023-02-19T04:35:10;9.00;99.90
46037;DHT22;31769;49.304;8.428;2023-02-19T04:38:11;9.10;99.90
46037;DHT22;31769;49.304;8.428;2023-02-19T04:41:13;9.10;99.90
46037;DHT22;31769;49.304;8.428;2023-02-19T04:44:14;9.10;99.90
46037;DHT22;31769;49.304;8.428;2023-02-19T04:47:15;9.00;99.90
46037;DHT22;31769;49.304;8.428;2023-02-19T04:50:18;9.00;99.90
46037;DHT22;31769;49.304;8.428;2023-02-19T04:53:19;9.10;99.90
46037;DHT22;31769;49.304;8.428;2023-02-19T04:56:19;9.00;99.90
46037;DHT22;31769;49.304;8.428;2023-02-19T04:59:20;9.00;99.90
46037;DHT22;31769;49.304;8.428;2023-02-19T05:02:21;9.00;99.90
46037;DHT22;31769;49.304;8.428;2023-02-19T05:05:21;9.00;99.90
46037;DHT22;31769;49.304;8.428;2023-02-19T05:08:22;9.00;99.90
46037;DHT22;31769;49.304;8.428;2023-02-19T05:11:23;9.00;99.90
46037;DHT22;31769;49.304;8.428;2023-02-19T05:14:23;9.00;99.90
46037;DHT22;31769;49.304;8.428;2023-02-19T05:17:24;9.00;99.90
46037;DHT22;31769;49.304;8.428;2023-02-19T05:20:25;9.00;99.90
46037;DHT22;31769;49.304;8.428;2023-02-19T05:23:26;9.10;99.90
46037;DHT22;31769;49.304;8.428;2023-02-19T05:26:27;9.20;99.90
46037;DHT22;31769;49.304;8.428;2023-02-19T05:29:30;9.10;99.90
46037;DHT22;31769;49.304;8.428;2023-02-19T05:32:30;9.10;99.90
46037;DHT22;31769;49.304;8.428;2023-02-19T05:35:31;9.10;99.90
46037;DHT22;31769;49.304;8.428;2023-02-19T05:38:33;9.30;99.90
46037;DHT22;31769;49.304;8.428;2023-02-19T05:41:34;9.10;99.90
46037;DHT22;31769;49.304;8.428;2023-02-19T05:44:35;9.10;99.90
46037;DHT22;31769;49.304;8.428;2023-02-19T05:47:36;9.20;99.90
46037;DHT22;31769;49.304;8.428;2023-02-19T05:50:38;9.20;99.90
46037;DHT22;31769;49.304;8.428;2023-02-19T05:53:46;9.20;99.90
46037;DHT22;31769;49.304;8.428;2023-02-19T05:56:48;9.20;99.90
46037;DHT22;31769;49.304;8.428;2023-02-19T05:59:49;9.20;99.90
46037;DHT22;31769;49.304;8.428;2023-02-19T06:02:50;10.10;99.90
46037;DHT22;31769;49.304;8.428;2023-02-19T06:05:52;9.30;99.90
46037;DHT22;31769;49.304;8.428;2023-02-19T06:08:53;9.40;99.90
46037;DHT22;31769;49.304;8.428;2023-02-19T06:11:54;9.40;99.90
46037;DHT22;31769;49.304;8.428;2023-02-19T06:14:55;9.40;99.90
46037;DHT22;31769;49.304;8.428;2023-02-19T06:17:56;9.40;99.90
46037;DHT22;31769;49.304;8.428;2023-02-19T06:21:02;9.30;99.90
46037;DHT22;31769;49.304;8.428;2023-02-19T06:24:05;9.30;99.90
46037;DHT22;31769;49.304;8.428;2023-02-19T06:27:07;9.40;99.90
46037;DHT22;31769;49.304;8.428;2023-02-19T06:30:09;9.30;99.90
46037;DHT22;31769;49.304;8.428;2023-02-19T06:33:10;9.30;99.90
46037;DHT22;31769;49.304;8.428;2023-02-19T06:36:15;9.30;99.90
46037;DHT22;31769;49.304;8.428;2023-02-19T06:39:17;9.30;99.90
46037;DHT22;31769;49.304;8.428;2023-02-19T06:42:18;9.20;99.90
46037;DHT22;31769;49.304;8.428;2023-02-19T06:45:19;9.30;99.90
46037;DHT22;31769;49.304;8.428;2023-02-19T06:48:21;9.20;99.90
46037;DHT22;31769;49.304;8.428;2023-02-19T06:51:23;9.20;99.90
46037;DHT22;31769;49.304;8.428;2023-02-19T06:54:26;9.20;99.90
46037;DHT22;31769;49.304;8.428;2023-02-19T06:57:28;9.20;99.90
46037;DHT22;31769;49.304;8.428;2023-02-19T07:00:29;9.20;99.90
46037;DHT22;31769;49.304;8.428;2023-02-19T07:03:30;9.20;99.90
46037;DHT22;31769;49.304;8.428;2023-02-19T07:06:32;9.20;99.90
46037;DHT22;31769;49.304;8.428;2023-02-19T07:09:33;9.20;99.90
46037;DHT22;31769;49.304;8.428;2023-02-19T07:12:34;9.20;99.90
46037;DHT22;31769;49.304;8.428;2023-02-19T07:15:35;9.20;99.90
46037;DHT22;31769;49.304;8.428;2023-02-19T07:18:37;9.30;99.90
46037;DHT22;31769;49.304;8.428;2023-02-19T07:21:39;9.30;99.90
46037;DHT22;31769;49.304;8.428;2023-02-19T07:24:42;9.30;99.90
46037;DHT22;31769;49.304;8.428;2023-02-19T07:27:45;9.30;99.90
46037;DHT22;31769;49.304;8.428;2023-02-19T07:30:46;9.30;99.90
46037;DHT22;31769;49.304;8.428;2023-02-19T07:33:47;9.30;99.90
46037;DHT22;31769;49.304;8.428;2023-02-19T07:36:49;9.40;99.90
46037;DHT22;31769;49.304;8.428;2023-02-19T07:39:50;9.40;99.90
46037;DHT22;31769;49.304;8.428;2023-02-19T07:42:51;9.50;99.90
46037;DHT22;31769;49.304;8.428;2023-02-19T07:45:53;9.50;99.90
46037;DHT22;31769;49.304;8.428;2023-02-19T07:48:54;9.60;99.90
46037;DHT22;31769;49.304;8.428;2023-02-19T07:51:55;9.70;99.90
46037;DHT22;31769;49.304;8.428;2023-02-19T07:54:55;9.70;99.90
46037;DHT22;31769;49.304;8.428;2023-02-19T07:57:57;9.70;99.90
46037;DHT22;31769;49.304;8.428;2023-02-19T08:01:08;9.80;99.90
46037;DHT22;31769;49.304;8.428;2023-02-19T08:04:11;9.80;99.90
46037;DHT22;31769;49.304;8.428;2023-02-19T08:07:12;9.90;99.90
46037;DHT22;31769;49.304;8.428;2023-02-19T08:10:13;9.90;99.90
46037;DHT22;31769;49.304;8.428;2023-02-19T08:13:32;9.90;99.90
46037;DHT22;31769;49.304;8.428;2023-02-19T08:16:33;10.00;99.90
46037;DHT22;31769;49.304;8.428;2023-02-19T08:19:34;10.10;99.90
46037;DHT22;31769;49.304;8.428;2023-02-19T08:22:35;10.20;99.90
46037;DHT22;31769;49.304;8.428;2023-02-19T08:25:37;10.20;99.90
46037;DHT22;31769;49.304;8.428;2023-02-19T08:28:38;10.30;99.90
46037;DHT22;31769;49.304;8.428;2023-02-19T08:31:39;10.40;99.90
46037;DHT22;31769;49.304;8.428;2023-02-19T08:34:39;10.50;99.90
46037;DHT22;31769;49.304;8.428;2023-02-19T08:37:40;10.60;99.90
46037;DHT22;31769;49.304;8.428;2023-02-19T08:40:41;10.70;99.90
46037;DHT22;31769;49.304;8.428;2023-02-19T08:43:42;10.80;99.90
46037;DHT22;31769;49.304;8.428;2023-02-19T08:46:43;10.90;99.90
46037;DHT22;31769;49.304;8.428;2023-02-19T08:49:44;11.00;99.90
46037;DHT22;31769;49.304;8.428;2023-02-19T08:52:45;11.10;99.90
46037;DHT22;31769;49.304;8.428;2023-02-19T08:55:45;11.20;99.90
46037;DHT22;31769;49.304;8.428;2023-02-19T08:58:46;11.20;99.90
46037;DHT22;31769;49.304;8.428;2023-02-19T09:01:47;11.20;99.90
46037;DHT22;31769;49.304;8.428;2023-02-19T09:04:48;11.20;99.90
46037;DHT22;31769;49.304;8.428;2023-02-19T09:07:49;11.10;99.90
46037;DHT22;31769;49.304;8.428;2023-02-19T09:11:03;11.10;99.90
46037;DHT22;31769;49.304;8.428;2023-02-19T09:14:04;11.00;99.90
46037;DHT22;31769;49.304;8.428;2023-02-19T09:17:07;11.10;99.90
46037;DHT22;31769;49.304;8.428;2023-02-19T09:20:09;11.00;99.90
46037;DHT22;31769;49.304;8.428;2023-02-19T09:23:10;11.10;99.90
46037;DHT22;31769;49.304;8.428;2023-02-19T09:26:11;11.40;99.90
46037;DHT22;31769;49.304;8.428;2023-02-19T09:29:13;11.80;99.90
46037;DHT22;31769;49.304;8.428;2023-02-19T09:32:14;11.80;99.90
46037;DHT22;31769;49.304;8.428;2023-02-19T09:35:15;11.60;99.90
46037;DHT22;31769;49.304;8.428;2023-02-19T09:38:16;11.40;99.90
46037;DHT22;31769;49.304;8.428;2023-02-19T09:41:33;11.50;99.90
46037;DHT22;31769;49.304;8.428;2023-02-19T09:44:38;11.80;99.90
46037;DHT22;31769;49.304;8.428;2023-02-19T09:47:39;11.80;99.90
46037;DHT22;31769;49.304;8.428;2023-02-19T09:50:44;11.90;99.90
46037;DHT22;31769;49.304;8.428;2023-02-19T09:53:48;12.00;99.90
46037;DHT22;31769;49.304;8.428;2023-02-19T09:56:54;11.80;99.90
46037;DHT22;31769;49.304;8.428;2023-02-19T10:03:13;11.80;99.90
46037;DHT22;31769;49.304;8.428;2023-02-19T10:06:24;11.90;99.90
46037;DHT22;31769;49.304;8.428;2023-02-19T10:09:26;11.80;99.90
46037;DHT22;31769;49.304;8.428;2023-02-19T10:12:30;11.80;99.90
46037;DHT22;31769;49.304;8.428;2023-02-19T10:15:37;11.80;99.90
46037;DHT22;31769;49.304;8.428;2023-02-19T10:18:41;11.80;99.90
46037;DHT22;31769;49.304;8.428;2023-02-19T10:21:43;11.90;99.90
46037;DHT22;31769;49.304;8.428;2023-02-19T10:24:45;11.90;99.90
46037;DHT22;31769;49.304;8.428;2023-02-19T10:27:49;12.00;99.90
46037;DHT22;31769;49.304;8.428;2023-02-19T10:30:52;12.10;99.90
46037;DHT22;31769;49.304;8.428;2023-02-19T10:33:56;12.10;99.90
46037;DHT22;31769;49.304;8.428;2023-02-19T10:36:57;12.20;99.90
46037;DHT22;31769;49.304;8.428;2023-02-19T10:39:58;12.40;99.90
46037;DHT22;31769;49.304;8.428;2023-02-19T10:43:02;12.50;99.90
46037;DHT22;31769;49.304;8.428;2023-02-19T10:46:14;12.70;99.90
46037;DHT22;31769;49.304;8.428;2023-02-19T10:49:19;12.70;99.90
46037;DHT22;31769;49.304;8.428;2023-02-19T10:52:31;12.70;99.90
46037;DHT22;31769;49.304;8.428;2023-02-19T10:55:34;12.60;99.90
46037;DHT22;31769;49.304;8.428;2023-02-19T10:58:35;12.70;99.90
46037;DHT22;31769;49.304;8.428;2023-02-19T11:01:38;12.80;99.90
46037;DHT22;31769;49.304;8.428;2023-02-19T11:08:22;12.70;99.90
46037;DHT22;31769;49.304;8.428;2023-02-19T11:11:23;12.70;99.90
46037;DHT22;31769;49.304;8.428;2023-02-19T11:14:26;12.60;99.90
46037;DHT22;31769;49.304;8.428;2023-02-19T11:17:29;12.50;99.90
46037;DHT22;31769;49.304;8.428;2023-02-19T11:20:30;12.50;99.90
46037;DHT22;31769;49.304;8.428;2023-02-19T11:23:35;12.50;99.90
46037;DHT22;31769;49.304;8.428;2023-02-19T11:26:36;12.40;99.90
46037;DHT22;31769;49.304;8.428;2023-02-19T11:29:37;12.30;99.90
46037;DHT22;31769;49.304;8.428;2023-02-19T11:32:38;12.40;99.90
46037;DHT22;31769;49.304;8.428;2023-02-19T11:35:39;12.30;99.90
46037;DHT22;31769;49.304;8.428;2023-02-19T11:38:42;12.10;99.90
46037;DHT22;31769;49.304;8.428;2023-02-19T11:42:17;12.20;99.90
46037;DHT22;31769;49.304;8.428;2023-02-19T11:45:33;12.10;99.90
46037;DHT22;31769;49.304;8.428;2023-02-19T11:48:46;12.10;99.90
46037;DHT22;31769;49.304;8.428;2023-02-19T11:58:16;12.40;99.90
46037;DHT22;31769;49.304;8.428;2023-02-19T12:05:17;13.10;99.90
46037;DHT22;31769;49.304;8.428;2023-02-19T12:11:59;13.20;99.90
46037;DHT22;31769;49.304;8.428;2023-02-19T12:18:34;13.60;99.90
46037;DHT22;31769;49.304;8.428;2023-02-19T12:21:41;13.90;99.90
46037;DHT22;31769;49.304;8.428;2023-02-19T12:31:20;13.80;99.90
46037;DHT22;31769;49.304;8.428;2023-02-19T12:44:36;14.10;99.90
46037;DHT22;31769;49.304;8.428;2023-02-19T12:47:39;14.20;99.90
46037;DHT22;31769;49.304;8.428;2023-02-19T12:50:44;13.50;99.90
46037;DHT22;31769;49.304;8.428;2023-02-19T12:54:00;13.30;99.90
46037;DHT22;31769;49.304;8.428;2023-02-19T13:00:28;13.60;99.90
46037;DHT22;31769;49.304;8.428;2023-02-19T13:03:36;13.90;99.90
46037;DHT22;31769;49.304;8.428;2023-02-19T13:06:44;14.50;99.90
46037;DHT22;31769;49.304;8.428;2023-02-19T13:10:43;14.40;99.90
46037;DHT22;31769;49.304;8.428;2023-02-19T13:16:31;13.90;99.90
46037;DHT22;31769;49.304;8.428;2023-02-19T13:19:35;13.80;99.90
46037;DHT22;31769;49.304;8.428;2023-02-19T13:22:43;13.60;99.90
46037;DHT22;31769;49.304;8.428;2023-02-19T13:32:57;13.20;99.90
46037;DHT22;31769;49.304;8.428;2023-02-19T13:36:10;13.30;99.90
46037;DHT22;31769;49.304;8.428;2023-02-19T13:39:16;13.40;99.90
46037;DHT22;31769;49.304;8.428;2023-02-19T13:48:37;14.20;99.90
46037;DHT22;31769;49.304;8.428;2023-02-19T13:51:46;14.80;99.90
46037;DHT22;31769;49.304;8.428;2023-02-19T13:54:48;15.10;99.90
46037;DHT22;31769;49.304;8.428;2023-02-19T13:57:49;15.10;99.90
46037;DHT22;31769;49.304;8.428;2023-02-19T14:00:51;14.90;99.90
46037;DHT22;31769;49.304;8.428;2023-02-19T14:04:05;14.90;99.90
46037;DHT22;31769;49.304;8.428;2023-02-19T14:10:12;13.90;99.90
46037;DHT22;31769;49.304;8.428;2023-02-19T14:13:53;13.50;99.90
46037;DHT22;31769;49.304;8.428;2023-02-19T14:16:57;13.20;99.90
46037;DHT22;31769;49.304;8.428;2023-02-19T14:23:22;12.70;99.90
46037;DHT22;31769;49.304;8.428;2023-02-19T14:26:24;12.60;99.90
46037;DHT22;31769;49.304;8.428;2023-02-19T14:29:27;12.60;99.90
46037;DHT22;31769;49.304;8.428;2023-02-19T14:32:28;12.50;99.90
46037;DHT22;31769;49.304;8.428;2023-02-19T14:35:42;12.50;99.90
46037;DHT22;31769;49.304;8.428;2023-02-19T14:38:56;12.50;99.90
46037;DHT22;31769;49.304;8.428;2023-02-19T14:42:23;12.50;99.90
46037;DHT22;31769;49.304;8.428;2023-02-19T14:45:46;12.40;99.90
46037;DHT22;31769;49.304;8.428;2023-02-19T14:48:48;12.30;99.90
46037;DHT22;31769;49.304;8.428;2023-02-19T14:51:51;12.20;99.90
46037;DHT22;31769;49.304;8.428;2023-02-19T14:54:59;12.10;99.90
46037;DHT22;31769;49.304;8.428;2023-02-19T14:58:10;12.00;99.90
46037;DHT22;31769;49.304;8.428;2023-02-19T15:01:26;12.00;99.90
46037;DHT22;31769;49.304;8.428;2023-02-19T15:04:35;12.00;99.90
46037;DHT22;31769;49.304;8.428;2023-02-19T15:07:36;11.90;99.90
46037;DHT22;31769;49.304;8.428;2023-02-19T15:10:37;11.80;99.90
46037;DHT22;31769;49.304;8.428;2023-02-19T15:13:38;11.80;99.90
46037;DHT22;31769;49.304;8.428;2023-02-19T15:16:45;11.70;99.90
46037;DHT22;31769;49.304;8.428;2023-02-19T15:19:46;11.70;99.90
46037;DHT22;31769;49.304;8.428;2023-02-19T15:22:47;11.70;99.90
46037;DHT22;31769;49.304;8.428;2023-02-19T15:25:49;11.70;99.90
46037;DHT22;31769;49.304;8.428;2023-02-19T15:29:02;11.70;99.90
46037;DHT22;31769;49.304;8.428;2023-02-19T15:32:15;11.70;99.90
46037;DHT22;31769;49.304;8.428;2023-02-19T15:35:19;11.70;99.90
46037;DHT22;31769;49.304;8.428;2023-02-19T15:38:21;11.70;99.90
46037;DHT22;31769;49.304;8.428;2023-02-19T15:41:22;11.60;99.90
46037;DHT22;31769;49.304;8.428;2023-02-19T15:50:37;11.60;99.90
46037;DHT22;31769;49.304;8.428;2023-02-19T15:53:45;11.50;99.90
46037;DHT22;31769;49.304;8.428;2023-02-19T15:56:48;11.50;99.90
46037;DHT22;31769;49.304;8.428;2023-02-19T16:00:05;11.40;99.90
46037;DHT22;31769;49.304;8.428;2023-02-19T16:03:17;11.40;99.90
46037;DHT22;31769;49.304;8.428;2023-02-19T16:06:19;11.30;99.90
46037;DHT22;31769;49.304;8.428;2023-02-19T16:12:32;11.30;99.90
46037;DHT22;31769;49.304;8.428;2023-02-19T16:15:33;11.30;99.90
46037;DHT22;31769;49.304;8.428;2023-02-19T16:18:35;11.30;99.90
46037;DHT22;31769;49.304;8.428;2023-02-19T16:21:35;11.20;99.90
46037;DHT22;31769;49.304;8.428;2023-02-19T16:24:41;11.20;99.90
46037;DHT22;31769;49.304;8.428;2023-02-19T16:27:44;11.20;99.90
46037;DHT22;31769;49.304;8.428;2023-02-19T16:30:45;11.10;99.90
46037;DHT22;31769;49.304;8.428;2023-02-19T16:33:47;11.00;99.90
46037;DHT22;31769;49.304;8.428;2023-02-19T16:36:48;11.00;99.90
46037;DHT22;31769;49.304;8.428;2023-02-19T16:46:14;10.90;99.90
46037;DHT22;31769;49.304;8.428;2023-02-19T16:49:15;10.80;99.90
46037;DHT22;31769;49.304;8.428;2023-02-19T16:52:16;10.80;99.90
46037;DHT22;31769;49.304;8.428;2023-02-19T16:55:16;10.60;99.90
46037;DHT22;31769;49.304;8.428;2023-02-19T16:58:17;10.50;99.90
46037;DHT22;31769;49.304;8.428;2023-02-19T17:04:19;10.70;99.90
46037;DHT22;31769;49.304;8.428;2023-02-19T17:07:20;10.30;99.90
46037;DHT22;31769;49.304;8.428;2023-02-19T17:10:24;10.30;99.90
46037;DHT22;31769;49.304;8.428;2023-02-19T17:13:25;10.30;99.90
46037;DHT22;31769;49.304;8.428;2023-02-19T17:16:28;10.30;99.90
46037;DHT22;31769;49.304;8.428;2023-02-19T17:19:29;10.30;99.90
46037;DHT22;31769;49.304;8.428;2023-02-19T17:22:29;10.20;99.90
46037;DHT22;31769;49.304;8.428;2023-02-19T17:25:30;10.20;99.90
46037;DHT22;31769;49.304;8.428;2023-02-19T17:28:31;10.10;99.90
46037;DHT22;31769;49.304;8.428;2023-02-19T17:31:31;10.20;99.90
46037;DHT22;31769;49.304;8.428;2023-02-19T17:34:33;10.20;99.90
46037;DHT22;31769;49.304;8.428;2023-02-19T17:37:33;10.20;99.90
46037;DHT22;31769;49.304;8.428;2023-02-19T17:40:34;10.20;99.90
46037;DHT22;31769;49.304;8.428;2023-02-19T17:43:36;10.20;99.90
46037;DHT22;31769;49.304;8.428;2023-02-19T17:46:37;10.20;99.90
46037;DHT22;31769;49.304;8.428;2023-02-19T17:49:38;10.20;99.90
46037;DHT22;31769;49.304;8.428;2023-02-19T17:52:39;10.20;99.90
46037;DHT22;31769;49.304;8.428;2023-02-19T17:55:39;10.20;99.90
46037;DHT22;31769;49.304;8.428;2023-02-19T17:58:40;10.20;99.90
46037;DHT22;31769;49.304;8.428;2023-02-19T18:01:41;10.30;99.90
46037;DHT22;31769;49.304;8.428;2023-02-19T18:04:41;10.30;99.90
46037;DHT22;31769;49.304;8.428;2023-02-19T18:07:42;10.30;99.90
46037;DHT22;31769;49.304;8.428;2023-02-19T18:10:43;10.30;99.90
46037;DHT22;31769;49.304;8.428;2023-02-19T18:13:44;10.30;99.90
46037;DHT22;31769;49.304;8.428;2023-02-19T18:16:48;10.20;99.90
46037;DHT22;31769;49.304;8.428;2023-02-19T18:19:50;10.20;99.90
46037;DHT22;31769;49.304;8.428;2023-02-19T18:22:51;10.20;99.90
46037;DHT22;31769;49.304;8.428;2023-02-19T18:25:52;10.20;99.90
46037;DHT22;31769;49.304;8.428;2023-02-19T18:28:52;10.10;99.90
46037;DHT22;31769;49.304;8.428;2023-02-19T18:31:53;10.30;99.90
46037;DHT22;31769;49.304;8.428;2023-02-19T18:34:58;10.00;99.90
46037;DHT22;31769;49.304;8.428;2023-02-19T18:37:59;10.00;99.90
46037;DHT22;31769;49.304;8.428;2023-02-19T18:41:00;10.00;99.90
46037;DHT22;31769;49.304;8.428;2023-02-19T18:44:00;9.90;99.90
46037;DHT22;31769;49.304;8.428;2023-02-19T18:47:01;9.90;99.90
46037;DHT22;31769;49.304;8.428;2023-02-19T18:50:02;9.70;99.90
46037;DHT22;31769;49.304;8.428;2023-02-19T18:53:03;9.90;99.90
46037;DHT22;31769;49.304;8.428;2023-02-19T18:56:04;9.90;99.90
46037;DHT22;31769;49.304;8.428;2023-02-19T18:59:04;9.90;99.90
46037;DHT22;31769;49.304;8.428;2023-02-19T19:02:06;9.90;99.90
46037;DHT22;31769;49.304;8.428;2023-02-19T19:05:08;9.80;99.90
46037;DHT22;31769;49.304;8.428;2023-02-19T19:08:09;9.80;99.90
46037;DHT22;31769;49.304;8.428;2023-02-19T19:11:09;9.90;99.90
46037;DHT22;31769;49.304;8.428;2023-02-19T19:14:10;9.80;99.90
46037;DHT22;31769;49.304;8.428;2023-02-19T19:17:11;9.80;99.90
46037;DHT22;31769;49.304;8.428;2023-02-19T19:20:14;9.80;99.90
46037;DHT22;31769;49.304;8.428;2023-02-19T19:23:15;11.00;99.90
46037;DHT22;31769;49.304;8.428;2023-02-19T19:26:16;9.70;99.90
46037;DHT22;31769;49.304;8.428;2023-02-19T19:29:18;9.70;99.90
46037;DHT22;31769;49.304;8.428;2023-02-19T19:32:19;9.60;99.90
46037;DHT22;31769;49.304;8.428;2023-02-19T19:35:21;9.70;99.90
46037;DHT22;31769;49.304;8.428;2023-02-19T19:38:22;9.70;99.90
46037;DHT22;31769;49.304;8.428;2023-02-19T19:41:22;9.60;99.90
46037;DHT22;31769;49.304;8.428;2023-02-19T19:44:23;9.70;99.90
46037;DHT22;31769;49.304;8.428;2023-02-19T19:47:24;9.70;99.90
46037;DHT22;31769;49.304;8.428;2023-02-19T19:50:24;9.80;99.90
46037;DHT22;31769;49.304;8.428;2023-02-19T19:53:25;9.70;99.90
46037;DHT22;31769;49.304;8.428;2023-02-19T19:56:25;9.90;99.90
46037;DHT22;31769;49.304;8.428;2023-02-19T19:59:26;9.70;99.90
46037;DHT22;31769;49.304;8.428;2023-02-19T20:02:27;9.80;99.90
46037;DHT22;31769;49.304;8.428;2023-02-19T20:05:27;9.80;99.90
46037;DHT22;31769;49.304;8.428;2023-02-19T20:08:28;9.80;99.90
46037;DHT22;31769;49.304;8.428;2023-02-19T20:11:29;9.70;99.90
46037;DHT22;31769;49.304;8.428;2023-02-19T20:14:29;9.70;99.90
46037;DHT22;31769;49.304;8.428;2023-02-19T20:17:30;9.70;99.90
46037;DHT22;31769;49.304;8.428;2023-02-19T20:20:31;9.70;99.90
46037;DHT22;31769;49.304;8.428;2023-02-19T20:23:31;9.80;99.90
46037;DHT22;31769;49.304;8.428;2023-02-19T20:26:32;10.70;99.90
46037;DHT22;31769;49.304;8.428;2023-02-19T20:29:34;9.70;99.90
46037;DHT22;31769;49.304;8.428;2023-02-19T20:32:34;9.70;99.90
46037;DHT22;31769;49.304;8.428;2023-02-19T20:35:35;9.80;99.90
46037;DHT22;31769;49.304;8.428;2023-02-19T20:38:36;9.80;99.90
46037;DHT22;31769;49.304;8.428;2023-02-19T20:41:36;9.80;99.90
46037;DHT22;31769;49.304;8.428;2023-02-19T20:44:37;9.90;99.90
46037;DHT22;31769;49.304;8.428;2023-02-19T20:47:38;9.90;99.90
46037;DHT22;31769;49.304;8.428;2023-02-19T20:50:39;9.80;99.90
46037;DHT22;31769;49.304;8.428;2023-02-19T20:53:40;9.80;99.90
46037;DHT22;31769;49.304;8.428;2023-02-19T20:56:46;9.70;99.90
46037;DHT22;31769;49.304;8.428;2023-02-19T20:59:47;9.80;99.90
46037;DHT22;31769;49.304;8.428;2023-02-19T21:02:48;9.80;99.90
46037;DHT22;31769;49.304;8.428;2023-02-19T21:05:48;9.80;99.90
46037;DHT22;31769;49.304;8.428;2023-02-19T21:08:49;9.80;99.90
46037;DHT22;31769;49.304;8.428;2023-02-19T21:11:50;9.80;99.90
46037;DHT22;31769;49.304;8.428;2023-02-19T21:14:51;9.80;99.90
46037;DHT22;31769;49.304;8.428;2023-02-19T21:17:52;9.80;99.90
46037;DHT22;31769;49.304;8.428;2023-02-19T21:20:52;9.80;99.90
46037;DHT22;31769;49.304;8.428;2023-02-19T21:23:54;9.80;99.90
46037;DHT22;31769;49.304;8.428;2023-02-19T21:26:55;9.80;99.90